Time;durP1;ratioP1;P1;durP2;ratioP2;P2;SDS_P1;SDS_P2;PMS_P1;PMS_P2;Temp;Humidity;BMP_temperature;BMP_pressure;BME280_temperature;BME280_humidity;BME280_pressure;Samples;Min_cycle;Max_cycle;Signal;HPM_P1;HPM_P2
2022/07/21 00:02:28;;;;;;;1.35;0.80;;;;;;;26.19;33.62;99739.75;4390338;32;32980;-78
2022/07/21 00:05:03;;;;;;;2.17;0.85;;;;;;;25.96;34.54;99747.69;4384824;32;34229;-78
2022/07/21 00:07:33;;;;;;;3.40;1.40;;;;;;;26.10;34.00;99748.47;4385026;32;34356;-77
2022/07/21 00:10:05;;;;;;;3.78;1.65;;;;;;;25.94;34.52;99746.97;4384179;32;33132;-76
2022/07/21 00:12:35;;;;;;;1.83;0.90;;;;;;;25.99;34.18;99743.13;4385835;32;33771;-78
2022/07/21 00:15:07;;;;;;;1.87;0.90;;;;;;;26.03;34.28;99744.59;4386512;32;34526;-78
2022/07/21 00:17:36;;;;;;;3.23;1.37;;;;;;;25.74;34.43;99742.31;4388654;32;34248;-78
2022/07/21 00:20:09;;;;;;;0.73;0.63;;;;;;;25.82;34.28;99747.88;4385086;32;33249;-78
2022/07/21 00:22:38;;;;;;;2.25;0.85;;;;;;;26.05;34.40;99748.81;4383415;32;33909;-79
2022/07/21 00:25:19;;;;;;;5.35;1.90;;;;;;;25.85;34.54;99742.31;4384059;32;34466;-78
2022/07/21 00:27:52;;;;;;;1.92;1.05;;;;;;;25.76;34.49;99746.53;4379627;32;34206;-79
2022/07/21 00:30:22;;;;;;;3.87;1.23;;;;;;;25.81;34.27;99743.53;4388904;32;34694;-78
2022/07/21 00:32:54;;;;;;;2.12;1.27;;;;;;;25.67;34.77;99746.38;4386395;32;33841;-78
2022/07/21 00:35:23;;;;;;;2.58;0.98;;;;;;;25.63;35.14;99742.25;4381208;32;34979;-78
2022/07/21 00:37:52;;;;;;;1.02;0.80;;;;;;;25.69;34.83;99747.13;4378882;32;33852;-79
2022/07/21 00:40:21;;;;;;;3.85;1.00;;;;;;;25.79;34.84;99748.13;4382251;32;34074;-79
2022/07/21 00:42:52;;;;;;;1.80;0.83;;;;;;;25.60;35.16;99745.16;4384323;32;36005;-78
2022/07/21 00:45:21;;;;;;;1.70;1.00;;;;;;;25.54;34.70;99747.31;4390515;32;33003;-79
2022/07/21 00:47:55;;;;;;;2.00;1.10;;;;;;;25.71;35.01;99750.50;4377724;32;34581;-79
2022/07/21 00:50:24;;;;;;;1.23;0.70;;;;;;;25.66;35.42;99747.31;4377890;32;34840;-78
2022/07/21 00:52:56;;;;;;;1.45;0.85;;;;;;;25.74;34.76;99758.25;4382855;32;34666;-78
2022/07/21 00:55:25;;;;;;;1.83;0.88;;;;;;;25.68;34.97;99754.22;4382197;32;34391;-78
2022/07/21 00:57:58;;;;;;;2.37;1.08;;;;;;;25.59;35.13;99746.97;4383400;32;34770;-79
2022/07/21 01:00:29;;;;;;;1.98;1.17;;;;;;;25.64;35.08;99750.13;4374774;32;36278;-79
2022/07/21 01:03:06;;;;;;;2.65;0.90;;;;;;;25.68;35.59;99746.25;4383765;32;33876;-78
2022/07/21 01:05:41;;;;;;;2.42;1.40;;;;;;;25.68;35.59;99746.25;4382155;32;34157;-79
2022/07/21 01:08:10;;;;;;;2.58;1.02;;;;;;;25.64;35.29;99741.31;4384580;32;33816;-77
2022/07/21 01:10:43;;;;;;;3.40;1.23;;;;;;;25.64;35.22;99749.28;4390303;32;33764;-78
2022/07/21 01:13:13;;;;;;;2.58;1.10;;;;;;;25.68;35.25;99751.56;4385467;32;34141;-77
2022/07/21 01:15:42;;;;;;;1.35;0.85;;;;;;;25.76;34.84;99759.81;4386473;32;33493;-78
2022/07/21 01:18:12;;;;;;;1.87;1.02;;;;;;;25.80;34.60;99763.09;4386244;32;35261;-79
2022/07/21 01:20:42;;;;;;;1.35;0.75;;;;;;;25.82;34.64;99758.50;4386543;32;34766;-78
2022/07/21 01:23:14;;;;;;;2.97;1.00;;;;;;;25.75;34.69;99754.63;4386197;32;34795;-78
2022/07/21 01:25:50;;;;;;;1.87;1.00;;;;;;;25.71;35.42;99758.47;4391219;32;33548;-77
2022/07/21 01:28:19;;;;;;;3.12;1.25;;;;;;;25.37;36.11;99752.16;4386137;32;34581;-79
2022/07/21 01:30:48;;;;;;;1.98;0.95;;;;;;;25.37;35.78;99745.06;4386161;32;33679;-77
2022/07/21 01:33:17;;;;;;;1.23;0.80;;;;;;;25.68;35.13;99750.72;4386508;32;34180;-77
2022/07/21 01:35:49;;;;;;;1.33;0.68;;;;;;;25.70;35.34;99754.12;4386874;32;33658;-79
2022/07/21 01:43:56;;;;;;;1.12;0.90;;;;;;;25.66;35.83;99739.34;4373472;32;33883;-79
2022/07/21 01:46:25;;;;;;;1.20;0.80;;;;;;;25.68;35.40;99743.59;4373021;32;33392;-79
2022/07/21 01:48:54;;;;;;;1.20;0.70;;;;;;;25.53;36.52;99742.09;4373872;32;34434;-79
2022/07/21 01:51:24;;;;;;;1.83;1.05;;;;;;;25.45;36.13;99739.19;4373132;32;32987;-79
2022/07/21 01:54:07;;;;;;;2.17;1.20;;;;;;;25.40;35.72;99738.69;4377261;32;35745;-78
2022/07/21 01:56:40;;;;;;;3.90;1.10;;;;;;;25.46;36.44;99739.03;4393683;32;33748;-78
2022/07/21 01:59:09;;;;;;;2.58;1.02;;;;;;;25.17;37.07;99742.97;4387962;32;33965;-78
2022/07/21 02:01:44;;;;;;;2.75;1.20;;;;;;;25.23;37.49;99753.19;4387349;32;33983;-78
2022/07/21 02:04:13;;;;;;;2.47;1.10;;;;;;;25.13;36.92;99739.72;4378683;32;34039;-79
2022/07/21 02:06:43;;;;;;;2.58;1.33;;;;;;;25.30;37.33;99742.00;4377255;32;34309;-78
2022/07/21 02:09:13;;;;;;;2.72;1.12;;;;;;;25.22;36.71;99744.34;4378734;32;33822;-78
2022/07/21 02:11:42;;;;;;;1.48;0.90;;;;;;;25.20;36.74;99748.09;4386131;32;33099;-78
2022/07/21 02:14:14;;;;;;;2.58;1.08;;;;;;;25.06;37.32;99739.31;4381631;32;34055;-79
2022/07/21 02:16:48;;;;;;;2.10;0.90;;;;;;;25.01;37.54;99741.44;4381181;32;33713;-79
2022/07/21 02:19:17;;;;;;;1.67;0.80;;;;;;;24.98;38.62;99744.28;4374243;32;33994;-77
2022/07/21 02:21:49;;;;;;;2.33;1.10;;;;;;;24.90;38.02;99744.00;4374514;32;34799;-79
2022/07/21 02:24:19;;;;;;;2.55;1.23;;;;;;;24.92;37.75;99747.41;4376712;32;34569;-77
2022/07/21 02:26:51;;;;;;;4.20;1.17;;;;;;;24.94;37.95;99753.47;4389817;32;33476;-78
2022/07/21 02:29:19;;;;;;;1.48;0.90;;;;;;;24.81;38.25;99755.28;4389227;32;33654;-78
2022/07/21 02:31:50;;;;;;;1.55;0.90;;;;;;;24.76;38.04;99760.06;4388638;32;34849;-77
2022/07/21 02:34:20;;;;;;;1.95;0.98;;;;;;;24.74;37.78;99757.50;4387573;32;32785;-79
2022/07/21 02:36:50;;;;;;;2.28;1.10;;;;;;;24.75;37.36;99763.69;4387888;32;33839;-78
2022/07/21 02:39:23;;;;;;;3.15;0.80;;;;;;;24.82;37.72;99764.97;4393437;32;34359;-79
2022/07/21 02:41:55;;;;;;;2.25;1.10;;;;;;;24.64;38.37;99761.78;4388196;32;32876;-79
2022/07/21 02:44:23;;;;;;;1.75;0.82;;;;;;;24.83;37.66;99762.19;4388109;32;33777;-79
2022/07/21 02:46:53;;;;;;;2.45;0.90;;;;;;;24.82;37.94;99757.00;4387868;32;34453;-78
2022/07/21 02:49:25;;;;;;;3.25;1.85;;;;;;;24.79;38.51;99762.50;4388231;32;32908;-79
2022/07/21 02:51:54;;;;;;;1.52;1.00;;;;;;;24.78;38.41;99766.13;4392794;32;33783;-79
2022/07/21 02:54:28;;;;;;;3.22;1.30;;;;;;;24.87;38.15;99750.37;4391474;32;35039;-79
2022/07/21 02:56:58;;;;;;;2.62;1.00;;;;;;;24.91;37.33;99754.53;4388003;32;33528;-79
2022/07/21 02:59:26;;;;;;;1.40;0.80;;;;;;;24.87;37.77;99754.84;4384357;32;33989;-77
2022/07/21 03:01:57;;;;;;;1.17;1.05;;;;;;;24.90;37.39;99752.81;4379833;32;33994;-77
2022/07/21 03:04:26;;;;;;;1.30;0.82;;;;;;;24.76;38.17;99757.41;4381300;32;33673;-78
2022/07/21 03:07:02;;;;;;;1.33;0.77;;;;;;;24.88;37.65;99759.19;4389673;32;33511;-78
2022/07/21 03:09:32;;;;;;;2.40;1.12;;;;;;;24.91;37.95;99764.28;4386262;32;33896;-78
2022/07/21 03:12:04;;;;;;;1.90;1.07;;;;;;;24.82;37.12;99754.34;4383267;32;36240;-79
2022/07/21 03:14:33;;;;;;;1.02;0.80;;;;;;;24.89;37.83;99758.25;4387228;32;34118;-78
2022/07/21 03:17:04;;;;;;;2.10;1.02;;;;;;;24.80;37.68;99761.56;4384421;32;33314;-77
2022/07/21 03:19:33;;;;;;;2.30;0.93;;;;;;;24.71;37.84;99763.03;4377741;32;33566;-78
2022/07/21 03:22:05;;;;;;;1.70;0.93;;;;;;;24.78;38.03;99761.66;4373547;32;33708;-78
2022/07/21 03:24:35;;;;;;;2.95;1.33;;;;;;;24.78;38.12;99763.47;4372694;32;34051;-78
2022/07/21 03:27:05;;;;;;;1.90;0.90;;;;;;;24.65;38.39;99761.69;4382745;32;34993;-78
2022/07/21 03:29:36;;;;;;;3.70;1.08;;;;;;;24.77;38.29;99756.47;4371583;32;34858;-78
2022/07/21 03:32:09;;;;;;;2.33;1.10;;;;;;;24.67;38.91;99761.59;4382306;32;33108;-78
2022/07/21 03:34:38;;;;;;;5.30;1.40;;;;;;;24.73;38.21;99765.59;4391809;32;35654;-79
2022/07/21 03:37:08;;;;;;;3.70;0.95;;;;;;;24.75;38.22;99761.03;4385427;32;34259;-77
2022/07/21 03:39:38;;;;;;;1.48;0.93;;;;;;;24.71;38.58;99763.03;4385794;32;33935;-77
2022/07/21 03:42:10;;;;;;;2.65;1.37;;;;;;;24.72;38.83;99758.59;4373104;32;33086;-79
2022/07/21 03:44:39;;;;;;;1.42;1.10;;;;;;;24.69;38.83;99762.31;4371439;32;33899;-79
2022/07/21 03:47:14;;;;;;;3.85;0.90;;;;;;;24.74;39.55;99764.63;4380186;32;34226;-78
2022/07/21 03:49:43;;;;;;;8.40;1.08;;;;;;;24.87;38.83;99760.16;4389999;32;32868;-78
2022/07/21 03:52:14;;;;;;;1.92;1.10;;;;;;;24.69;39.61;99763.19;4375743;32;33794;-79
2022/07/21 03:54:44;;;;;;;1.90;0.90;;;;;;;24.72;39.63;99769.19;4379612;32;33417;-78
2022/07/21 03:57:17;;;;;;;2.53;1.23;;;;;;;24.83;39.74;99770.13;4375312;32;33584;-78
2022/07/21 03:59:45;;;;;;;3.95;1.35;;;;;;;24.98;39.91;99768.19;4376966;32;34471;-78
2022/07/21 04:02:17;;;;;;;2.08;0.80;;;;;;;24.91;40.15;99770.44;4376847;32;34008;-78
2022/07/21 04:04:46;;;;;;;7.62;1.58;;;;;;;24.95;39.84;99776.38;4376590;32;34630;-77
2022/07/21 04:07:20;;;;;;;2.12;1.08;;;;;;;24.67;39.91;99773.03;4379886;32;33663;-78
2022/07/21 04:09:52;;;;;;;1.83;0.95;;;;;;;24.59;40.81;99780.66;4381558;32;33944;-79
2022/07/21 04:12:31;;;;;;;3.58;1.50;;;;;;;24.51;39.99;99777.72;4384104;32;34787;-78
2022/07/21 04:15:02;;;;;;;2.10;1.10;;;;;;;24.87;39.82;99784.88;4375374;32;34848;-77
2022/07/21 04:17:31;;;;;;;3.78;1.50;;;;;;;24.81;39.17;99774.69;4384424;32;33527;-78
2022/07/21 04:20:02;;;;;;;2.15;1.25;;;;;;;25.00;40.22;99778.69;4385184;32;33911;-78
2022/07/21 04:22:30;;;;;;;4.53;1.20;;;;;;;25.18;41.17;99776.53;4382610;32;33187;-79
2022/07/21 04:25:08;;;;;;;2.10;1.12;;;;;;;25.33;40.69;99778.09;4385782;32;34263;-76
2022/07/21 04:27:39;;;;;;;2.37;0.90;;;;;;;25.44;40.50;99778.19;4382651;32;34295;-80
2022/07/21 04:30:11;;;;;;;2.33;1.15;;;;;;;25.39;41.16;99776.78;4387197;32;33415;-80
2022/07/21 04:32:40;;;;;;;2.17;1.02;;;;;;;25.38;41.55;99783.91;4374907;32;34853;-80
2022/07/21 04:38:05;;;;;;;2.05;0.98;;;;;;;25.59;42.21;99776.19;4371396;32;33779;-77
2022/07/21 04:40:41;;;;;;;3.55;0.93;;;;;;;25.76;41.69;99782.91;4378719;32;34415;-78
2022/07/21 04:43:10;;;;;;;3.90;1.35;;;;;;;25.65;41.95;99786.34;4379898;32;34871;-78
2022/07/21 04:45:42;;;;;;;1.80;0.80;;;;;;;25.80;42.01;99784.34;4383735;32;34126;-78
2022/07/21 04:48:12;;;;;;;2.83;1.33;;;;;;;25.85;42.18;99791.97;4377458;32;34387;-77
2022/07/21 04:50:41;;;;;;;1.23;0.80;;;;;;;25.94;41.18;99791.31;4378991;32;33121;-78
2022/07/21 04:53:22;;;;;;;2.28;1.33;;;;;;;26.34;41.34;99785.63;4372936;32;33926;-77
2022/07/21 04:55:55;;;;;;;2.65;1.30;;;;;;;26.81;40.66;99789.88;4371593;32;34149;-78
2022/07/21 04:58:28;;;;;;;2.92;1.30;;;;;;;27.18;40.36;99786.09;4373281;32;33713;-78
2022/07/21 05:01:00;;;;;;;1.83;0.90;;;;;;;28.27;38.16;99788.63;4373524;32;33632;-80
2022/07/21 05:03:29;;;;;;;3.60;1.27;;;;;;;29.12;37.07;99794.66;4387366;32;34413;-79
2022/07/21 05:06:01;;;;;;;2.35;0.93;;;;;;;30.00;35.55;99800.94;4384097;32;33986;-79
2022/07/21 05:08:30;;;;;;;3.33;1.37;;;;;;;30.70;34.83;99797.97;4382836;32;34024;-79
2022/07/21 05:11:04;;;;;;;1.35;0.98;;;;;;;31.25;33.64;99798.84;4376086;32;33615;-78
2022/07/21 05:13:33;;;;;;;1.42;0.88;;;;;;;31.68;32.21;99794.63;4374452;32;33926;-79
2022/07/21 05:16:02;;;;;;;1.62;0.95;;;;;;;32.17;29.88;99788.84;4383933;32;34101;-78
2022/07/21 05:18:33;;;;;;;2.40;1.00;;;;;;;32.47;30.36;99787.50;4370400;32;33080;-78
2022/07/21 05:21:02;;;;;;;1.90;0.90;;;;;;;32.69;29.81;99790.66;4373879;32;34346;-78
2022/07/21 05:23:34;;;;;;;2.03;1.10;;;;;;;32.92;29.81;99797.16;4379208;32;33721;-79
2022/07/21 05:26:10;;;;;;;2.87;1.15;;;;;;;32.95;29.74;99796.00;4377948;32;34346;-78
2022/07/21 05:28:38;;;;;;;2.45;1.20;;;;;;;33.03;29.11;99798.78;4375930;32;34581;-78
2022/07/21 05:31:09;;;;;;;3.00;1.60;;;;;;;33.07;27.64;99800.09;4385654;32;34602;-78
2022/07/21 05:33:38;;;;;;;3.25;1.23;;;;;;;33.02;26.93;99797.03;4382098;32;34001;-78
2022/07/21 05:36:18;;;;;;;2.30;1.10;;;;;;;33.09;27.16;99802.63;4382170;32;33709;-77
2022/07/21 05:38:51;;;;;;;;;;;;;;;32.85;26.90;99809.56;4378222;32;33504;-78
2022/07/21 05:41:21;;;;;;;3.40;1.30;;;;;;;32.85;26.49;99811.41;4385643;32;33085;-78
2022/07/21 05:43:50;;;;;;;;;;;;;;;32.68;27.20;99815.88;4374238;32;34101;-79
2022/07/21 05:46:22;;;;;;;4.95;1.60;;;;;;;32.60;27.24;99816.66;4385158;32;34223;-79
2022/07/21 05:48:54;;;;;;;3.87;1.40;;;;;;;32.70;27.06;99817.37;4372098;32;33306;-78
2022/07/21 05:51:23;;;;;;;1.77;1.10;;;;;;;32.97;26.97;99823.56;4383769;32;34018;-79
2022/07/21 05:53:53;;;;;;;2.62;1.42;;;;;;;33.21;26.70;99817.47;4380993;32;34007;-78
2022/07/21 05:56:25;;;;;;;2.67;1.15;;;;;;;32.91;26.84;99816.13;4376870;32;34230;-80
2022/07/21 05:58:59;;;;;;;5.07;1.45;;;;;;;33.21;26.49;99816.63;4378331;32;33949;-79
2022/07/21 06:01:27;;;;;;;4.43;1.30;;;;;;;33.28;25.88;99817.66;4371220;32;34704;-79
2022/07/21 06:04:01;;;;;;;5.62;1.62;;;;;;;32.88;26.58;99816.47;4373545;32;34294;-79
2022/07/21 06:06:29;;;;;;;2.53;1.20;;;;;;;33.26;26.37;99811.59;4371817;32;34200;-78
2022/07/21 06:09:02;;;;;;;3.40;1.50;;;;;;;33.19;26.17;99815.94;4371631;32;34530;-79
2022/07/21 06:11:32;;;;;;;3.08;1.23;;;;;;;33.08;25.99;99815.25;4371365;32;33934;-78
2022/07/21 06:14:12;;;;;;;3.67;1.37;;;;;;;32.72;26.41;99809.19;4382573;32;35062;-79
2022/07/21 06:16:46;;;;;;;4.85;1.50;;;;;;;32.57;26.54;99816.97;4374657;32;33995;-78
2022/07/21 06:19:15;;;;;;;3.03;1.35;;;;;;;32.34;27.11;99815.81;4371493;32;33586;-79
2022/07/21 06:21:44;;;;;;;2.87;1.50;;;;;;;31.97;28.07;99819.53;4376591;32;31919;-79
2022/07/21 06:24:15;;;;;;;2.53;1.25;;;;;;;32.10;27.11;99811.94;4373416;32;33740;-77
2022/07/21 06:26:55;;;;;;;12.98;2.47;;;;;;;31.63;27.64;99822.88;4379243;32;34854;-79
2022/07/21 06:29:35;;;;;;;2.87;1.52;;;;;;;31.81;27.76;99821.06;4383498;32;34222;-79
2022/07/21 06:32:03;;;;;;;4.30;1.87;;;;;;;31.70;28.43;99821.28;4372326;32;34067;-78
2022/07/21 06:34:38;;;;;;;5.07;2.15;;;;;;;31.52;28.34;99825.81;4377729;32;33462;-79
2022/07/21 06:37:09;;;;;;;6.20;1.70;;;;;;;31.61;27.44;99824.91;4373479;32;34353;-79
2022/07/21 06:39:41;;;;;;;4.57;1.62;;;;;;;31.39;27.73;99818.13;4374662;32;33063;-78
2022/07/21 06:42:16;;;;;;;2.75;1.48;;;;;;;31.45;27.60;99813.00;4380954;32;33877;-79
2022/07/21 06:44:45;;;;;;;3.80;1.40;;;;;;;31.47;28.16;99818.22;4380168;32;33710;-78
2022/07/21 06:47:22;;;;;;;7.07;1.92;;;;;;;31.17;28.33;99814.00;4374632;32;36022;-79
2022/07/21 06:49:54;;;;;;;5.15;1.48;;;;;;;31.52;27.63;99815.09;4383784;32;35246;-78
2022/07/21 06:52:38;;;;;;;3.90;1.55;;;;;;;31.40;27.80;99815.28;4373109;32;33767;-78
2022/07/21 06:55:09;;;;;;;3.78;1.65;;;;;;;31.54;27.43;99813.09;4375539;32;34599;-79
2022/07/21 06:57:42;;;;;;;4.40;1.35;;;;;;;31.52;27.96;99804.34;4375583;32;33578;-79
2022/07/21 07:00:13;;;;;;;3.08;1.30;;;;;;;31.62;27.65;99815.84;4382117;32;33395;-78
2022/07/21 07:02:44;;;;;;;4.97;1.58;;;;;;;31.33;28.14;99819.53;4383821;32;34742;-78
2022/07/21 07:05:13;;;;;;;3.05;1.30;;;;;;;31.40;28.32;99828.69;4380249;32;34667;-78
2022/07/21 07:07:47;;;;;;;4.00;1.50;;;;;;;31.39;27.68;99821.66;4369775;32;34225;-79
2022/07/21 07:10:17;;;;;;;2.85;1.20;;;;;;;31.52;27.56;99821.28;4378077;32;33604;-79
2022/07/21 07:12:47;;;;;;;3.75;1.58;;;;;;;31.47;27.86;99823.56;4384761;32;34711;-78
2022/07/21 07:15:36;;;;;;;3.55;1.58;;;;;;;31.63;27.46;99822.88;4381157;32;34849;-79
2022/07/21 07:18:05;;;;;;;2.97;1.40;;;;;;;31.59;27.95;99824.22;4373063;32;33919;-78
2022/07/21 07:20:38;;;;;;;3.62;1.37;;;;;;;31.15;28.17;99819.50;4377651;32;33733;-79
2022/07/21 07:23:10;;;;;;;2.10;1.40;;;;;;;31.63;27.88;99825.56;4375432;32;33844;-78
2022/07/21 07:25:39;;;;;;;4.57;1.75;;;;;;;31.68;27.48;99821.44;4379243;32;33344;-78
2022/07/21 07:28:13;;;;;;;3.30;1.70;;;;;;;31.68;28.26;99817.94;4382449;32;34143;-79
2022/07/21 07:30:42;;;;;;;5.18;1.62;;;;;;;31.85;27.17;99818.94;4376987;32;33575;-78
2022/07/21 07:33:11;;;;;;;2.42;1.12;;;;;;;31.96;27.42;99820.53;4370353;32;34585;-77
2022/07/21 07:35:43;;;;;;;2.58;1.27;;;;;;;31.94;27.25;99817.97;4377650;32;35016;-78
2022/07/21 07:38:17;;;;;;;5.55;1.27;;;;;;;31.95;26.99;99819.72;4377994;32;34178;-77
2022/07/21 07:40:46;;;;;;;4.25;1.60;;;;;;;32.26;27.02;99806.69;4373598;32;34466;-78
2022/07/21 07:43:19;;;;;;;1.65;1.00;;;;;;;32.07;26.89;99806.88;4376306;32;33830;-78
2022/07/21 07:45:48;;;;;;;4.55;1.48;;;;;;;32.35;26.75;99801.38;4378956;32;34432;-77
2022/07/21 07:48:20;;;;;;;3.50;1.55;;;;;;;32.31;27.25;99806.22;4380352;32;33846;-77
2022/07/21 07:50:49;;;;;;;3.75;1.85;;;;;;;32.47;26.08;99800.09;4385226;32;33525;-78
2022/07/21 07:53:18;;;;;;;4.22;1.62;;;;;;;32.71;25.82;99797.56;4384767;32;33857;-77
2022/07/21 07:55:50;;;;;;;3.90;1.87;;;;;;;32.13;26.72;99797.38;4372007;32;33813;-78
2022/07/21 07:58:22;;;;;;;2.62;1.20;;;;;;;32.47;26.88;99792.88;4375044;32;35623;-78
2022/07/21 08:00:51;;;;;;;2.20;1.23;;;;;;;32.70;26.90;99800.44;4374005;32;33511;-77
2022/07/21 08:03:24;;;;;;;3.15;1.35;;;;;;;32.79;25.98;99801.28;4379071;32;32261;-77
2022/07/21 08:05:55;;;;;;;2.25;1.30;;;;;;;32.68;26.24;99805.97;4386684;32;34679;-78
2022/07/21 08:08:27;;;;;;;3.78;1.62;;;;;;;33.05;25.48;99804.78;4379304;32;33618;-77
2022/07/21 08:10:55;;;;;;;4.55;1.55;;;;;;;33.13;26.04;99799.47;4379424;32;33596;-78
2022/07/21 08:13:28;;;;;;;3.72;1.60;;;;;;;33.38;24.97;99799.53;4381350;32;34815;-78
2022/07/21 08:15:57;;;;;;;2.62;1.73;;;;;;;33.08;25.71;99800.94;4375208;32;33547;-79
2022/07/21 08:18:28;;;;;;;1.70;1.00;;;;;;;32.94;25.89;99805.06;4378496;32;34217;-77
2022/07/21 08:20:57;;;;;;;4.12;1.40;;;;;;;33.32;24.84;99803.72;4376316;32;33427;-77
2022/07/21 08:23:29;;;;;;;2.42;1.20;;;;;;;33.49;25.18;99801.03;4379177;32;34006;-78
2022/07/21 08:25:58;;;;;;;3.53;1.30;;;;;;;33.53;24.86;99803.22;4381454;32;31999;-78
2022/07/21 08:28:29;;;;;;;3.28;1.45;;;;;;;33.70;25.16;99797.91;4374070;32;34655;-80
2022/07/21 08:30:58;;;;;;;3.25;1.30;;;;;;;33.72;23.87;99796.75;4374897;32;32216;-79
2022/07/21 08:33:30;;;;;;;3.25;1.60;;;;;;;33.61;24.52;99793.53;4378004;32;33880;-78
2022/07/21 08:35:59;;;;;;;5.20;1.67;;;;;;;33.47;24.29;99790.47;4371087;32;33581;-79
2022/07/21 08:38:34;;;;;;;2.92;1.45;;;;;;;33.38;24.50;99788.75;4383115;32;34014;-78
2022/07/21 08:41:03;;;;;;;7.20;1.90;;;;;;;33.52;24.35;99790.81;4385368;32;34055;-79
2022/07/21 08:43:35;;;;;;;3.08;1.42;;;;;;;33.61;24.41;99790.84;4376708;32;34646;-79
2022/07/21 08:46:05;;;;;;;4.03;1.67;;;;;;;33.85;24.91;99790.84;4380931;32;34320;-79
2022/07/21 08:48:37;;;;;;;2.87;1.37;;;;;;;33.71;23.71;99781.63;4381261;32;34876;-78
2022/07/21 08:51:06;;;;;;;4.75;1.67;;;;;;;33.62;23.68;99781.78;4377794;32;33512;-79
2022/07/21 08:53:34;;;;;;;3.20;1.45;;;;;;;33.93;24.29;99777.41;4377164;32;33933;-80
2022/07/21 08:56:07;;;;;;;3.85;1.60;;;;;;;34.25;24.01;99785.66;4385997;32;34081;-79
2022/07/21 08:58:40;;;;;;;2.55;1.50;;;;;;;34.15;23.82;99778.59;4386504;32;34644;-80
2022/07/21 09:01:10;;;;;;;4.00;1.50;;;;;;;34.17;23.23;99781.94;4372500;32;34335;-79
2022/07/21 09:03:42;;;;;;;4.93;1.77;;;;;;;33.91;23.20;99771.34;4372967;32;33747;-79
2022/07/21 09:06:15;;;;;;;3.10;1.50;;;;;;;33.98;23.22;99776.91;4377955;32;34791;-79
2022/07/21 09:08:47;;;;;;;2.58;1.45;;;;;;;34.36;23.00;99772.66;4382346;32;33901;-77
2022/07/21 09:11:26;;;;;;;2.55;1.60;;;;;;;34.36;23.16;99772.66;4377811;32;33570;-78
2022/07/21 09:14:07;;;;;;;3.20;1.52;;;;;;;34.86;22.77;99776.03;4375533;32;34327;-80
2022/07/21 09:16:37;;;;;;;5.40;1.20;;;;;;;34.63;23.04;99775.97;4372441;32;34829;-78
2022/07/21 09:19:17;;;;;;;2.45;1.33;;;;;;;35.03;21.91;99774.09;4368108;32;33795;-79
2022/07/21 09:21:48;;;;;;;4.22;1.40;;;;;;;34.94;21.78;99775.16;4375308;32;34327;-79
2022/07/21 09:24:22;;;;;;;4.85;2.65;;;;;;;34.54;23.21;99769.75;4385388;32;34022;-79
2022/07/21 09:27:03;;;;;;;3.05;1.58;;;;;;;34.70;22.73;99774.28;4381255;32;34485;-78
2022/07/21 09:29:37;;;;;;;4.53;1.67;;;;;;;34.61;22.81;99764.53;4388642;32;34042;-77
2022/07/21 09:32:19;;;;;;;4.50;1.77;;;;;;;34.62;23.39;99760.81;4389078;32;33321;-79
2022/07/21 09:34:49;;;;;;;3.22;1.40;;;;;;;35.08;21.91;99760.94;4392680;32;33432;-79
2022/07/21 09:37:23;;;;;;;3.17;1.58;;;;;;;35.01;22.66;99758.13;4393598;32;34938;-79
2022/07/21 09:40:04;;;;;;;2.95;1.27;;;;;;;34.93;21.97;99749.22;4380235;32;33716;-78
2022/07/21 09:42:35;;;;;;;3.70;1.75;;;;;;;35.32;21.26;99751.03;4378858;32;33540;-79
2022/07/21 09:45:11;;;;;;;2.30;1.00;;;;;;;35.48;22.32;99751.78;4381366;32;33506;-77
2022/07/21 09:47:45;;;;;;;2.67;1.25;;;;;;;35.46;22.04;99744.88;4372590;32;34783;-78
2022/07/21 09:50:17;;;;;;;2.87;1.67;;;;;;;34.81;21.61;99743.38;4376599;32;33512;-78
2022/07/21 09:52:58;;;;;;;4.75;1.67;;;;;;;34.89;21.47;99745.19;4376010;32;33436;-79
2022/07/21 09:55:28;;;;;;;2.40;1.48;;;;;;;35.14;21.19;99735.16;4378543;32;33711;-78
2022/07/21 09:57:58;;;;;;;3.37;1.60;;;;;;;35.43;21.94;99732.59;4381505;32;33932;-78
2022/07/21 10:00:30;;;;;;;2.62;1.52;;;;;;;35.75;20.50;99724.44;4374889;32;33852;-79
2022/07/21 10:03:00;;;;;;;2.65;1.35;;;;;;;35.90;20.64;99730.69;4373390;32;33411;-80
2022/07/21 10:05:30;;;;;;;4.70;1.75;;;;;;;36.05;22.32;99731.56;4373385;32;33748;-79
2022/07/21 10:08:02;;;;;;;5.60;1.33;;;;;;;35.67;21.09;99725.34;4373898;32;34965;-79
2022/07/21 10:10:35;;;;;;;2.10;1.15;;;;;;;35.75;20.38;99722.56;4377630;32;34323;-79
2022/07/21 10:13:25;;;;;;;2.40;1.23;;;;;;;35.58;20.81;99727.25;4379145;32;34217;-78
2022/07/21 10:15:58;;;;;;;3.47;1.48;;;;;;;35.81;20.98;99716.44;4377462;32;33877;-79
2022/07/21 10:18:29;;;;;;;3.20;1.40;;;;;;;36.15;21.27;99719.66;4372480;32;34749;-81
2022/07/21 10:21:05;;;;;;;2.33;1.52;;;;;;;36.29;20.50;99716.12;4372023;32;35546;-79
2022/07/21 10:23:42;;;;;;;2.67;1.35;;;;;;;36.09;21.55;99715.84;4380612;32;34372;-79
2022/07/21 10:26:12;;;;;;;4.40;1.77;;;;;;;36.33;20.62;99714.75;4388115;32;33887;-78
2022/07/21 10:28:44;;;;;;;8.13;1.50;;;;;;;36.65;20.77;99710.81;4378129;32;34864;-79
2022/07/21 10:31:18;;;;;;;4.78;1.52;;;;;;;36.61;19.49;99708.69;4372433;32;34207;-79
2022/07/21 10:33:59;;;;;;;2.87;1.25;;;;;;;36.90;19.84;99705.94;4371675;32;33537;-78
2022/07/21 10:36:55;;;;;;;2.55;1.35;;;;;;;37.18;20.27;99702.50;4372542;32;33400;-79
2022/07/21 10:39:31;;;;;;;6.78;2.83;;;;;;;37.37;18.64;99706.44;4372508;32;34828;-78
2022/07/21 10:42:01;;;;;;;3.03;1.48;;;;;;;36.91;19.12;99702.19;4372155;32;34034;-78
2022/07/21 10:44:49;;;;;;;2.72;1.55;;;;;;;37.10;19.63;99702.63;4372931;32;34362;-78
2022/07/21 10:47:30;;;;;;;3.40;1.50;;;;;;;37.29;18.58;99695.75;4378028;32;34463;-78
2022/07/21 10:50:09;;;;;;;4.50;2.08;;;;;;;37.21;18.30;99698.56;4378263;32;33712;-78
2022/07/21 10:53:13;;;;;;;2.92;1.50;;;;;;;37.27;18.61;99695.94;4372618;32;33950;-79
2022/07/21 10:55:47;;;;;;;2.30;1.15;;;;;;;37.22;19.65;99692.16;4373353;32;33218;-79
2022/07/21 10:58:18;;;;;;;4.80;2.22;;;;;;;37.43;20.76;99684.03;4372520;32;34608;-79
2022/07/21 11:00:55;;;;;;;3.85;1.50;;;;;;;37.52;19.06;99680.16;4358789;32;32970;-79
2022/07/21 11:03:30;;;;;;;;;;;;;;;37.50;19.78;99676.78;4373281;32;35999;-80
2022/07/21 11:06:21;;;;;;;5.50;1.58;;;;;;;37.92;19.06;99679.63;4387941;32;34179;-79
2022/07/21 11:09:10;;;;;;;3.75;2.05;;;;;;;38.25;18.98;99674.41;4382478;32;34675;-80
2022/07/21 11:11:59;;;;;;;5.65;2.30;;;;;;;38.26;19.03;99669.84;4378145;32;34637;-79
2022/07/21 11:14:44;;;;;;;3.08;1.60;;;;;;;38.81;18.57;99670.72;4384146;32;34723;-80
2022/07/21 11:17:26;;;;;;;2.60;1.40;;;;;;;38.90;18.32;99665.91;4388358;32;33548;-79
2022/07/21 11:19:56;;;;;;;5.20;1.77;;;;;;;39.13;16.43;99663.69;4387392;32;34356;-80
2022/07/21 11:22:30;;;;;;;2.08;1.05;;;;;;;39.10;15.84;99665.97;4387628;32;33977;-80
2022/07/21 11:25:00;;;;;;;2.58;1.20;;;;;;;38.77;16.15;99664.03;4376958;32;34306;-80
2022/07/21 11:27:35;;;;;;;2.42;1.20;;;;;;;38.74;16.28;99661.72;4373224;32;33515;-80
2022/07/21 11:30:08;;;;;;;5.15;1.08;;;;;;;39.00;15.98;99660.97;4378214;32;33733;-79
2022/07/21 11:32:37;;;;;;;2.12;0.95;;;;;;;38.90;15.75;99661.31;4372769;32;33983;-80
2022/07/21 11:35:13;;;;;;;1.55;0.88;;;;;;;39.13;16.83;99657.44;4372699;32;34061;-80
2022/07/21 11:37:45;;;;;;;1.42;0.80;;;;;;;39.38;16.35;99653.09;4378460;32;34401;-78
2022/07/21 11:40:19;;;;;;;2.50;1.23;;;;;;;39.75;15.53;99648.06;4381540;32;33636;-80
2022/07/21 11:42:53;;;;;;;3.15;1.08;;;;;;;39.58;15.45;99641.38;4376871;32;33502;-80
2022/07/21 11:45:25;;;;;;;2.28;1.20;;;;;;;39.58;16.07;99635.94;4377305;32;34816;-79
2022/07/21 11:48:04;;;;;;;1.80;1.17;;;;;;;39.95;15.29;99636.34;4372060;32;34669;-79
2022/07/21 11:50:37;;;;;;;2.43;1.03;;;;;;;39.80;15.75;99628.41;4371954;32;34237;-80
2022/07/21 11:53:06;;;;;;;1.58;0.95;;;;;;;40.03;15.82;99617.91;4372438;32;33933;-80
2022/07/21 11:55:39;;;;;;;7.43;1.65;;;;;;;40.23;15.22;99625.16;4377504;32;33886;-81
2022/07/21 11:58:21;;;;;;;4.10;1.55;;;;;;;40.66;14.61;99622.66;4379828;32;33559;-79
2022/07/21 12:01:04;;;;;;;2.17;0.98;;;;;;;40.26;14.12;99608.47;4374042;32;34484;-79
2022/07/21 12:03:33;;;;;;;2.50;1.37;;;;;;;39.94;14.19;99613.75;4375063;32;34590;-79
2022/07/21 12:06:05;;;;;;;4.40;1.40;;;;;;;39.77;14.61;99613.34;4372758;32;33872;-78
2022/07/21 12:08:33;;;;;;;2.05;1.00;;;;;;;39.55;14.33;99614.66;4385410;32;33557;-80